Time;durP1;ratioP1;P1;durP2;ratioP2;P2;SDS_P1;SDS_P2;PMS_P1;PMS_P2;Temp;Humidity;BMP_temperature;BMP_pressure;BME280_temperature;BME280_humidity;BME280_pressure;Samples;Min_cycle;Max_cycle;Signal;HPM_P1;HPM_P2
2023/02/26 00:00:36;;;;;;;;;22.75;18.75;;;;;;;;5049283;28;13514;-69
2023/02/26 00:03:02;;;;;;;;;20.00;18.00;;;;;;;;5053865;28;14287;-68
2023/02/26 00:05:27;;;;;;;;;19.50;17.25;;;;;;;;5049464;28;13415;-70
2023/02/26 00:07:52;;;;;;;;;14.50;13.00;;;;;;;;5045971;28;13696;-69
2023/02/26 00:10:18;;;;;;;;;23.00;14.33;;;;;;;;5048385;28;13548;-71
2023/02/26 00:12:44;;;;;;;;;19.60;15.00;;;;;;;;5048401;28;13532;-69
2023/02/26 00:15:12;;;;;;;;;23.00;18.50;;;;;;;;5048387;28;13681;-69
2023/02/26 00:17:40;;;;;;;;;19.60;16.20;;;;;;;;5053132;28;13600;-69
2023/02/26 00:20:06;;;;;;;;;22.75;18.75;;;;;;;;5057576;28;13601;-68
2023/02/26 00:22:31;;;;;;;;;17.00;16.40;;;;;;;;5057798;28;13691;-69
2023/02/26 00:24:57;;;;;;;;;23.50;21.50;;;;;;;;5058163;28;14283;-69
2023/02/26 00:27:22;;;;;;;;;23.50;17.00;;;;;;;;5056205;28;14320;-69
2023/02/26 00:29:47;;;;;;;;;19.00;15.67;;;;;;;;5058401;28;13529;-69
2023/02/26 00:32:13;;;;;;;;;18.25;14.00;;;;;;;;5043267;28;13674;-68
2023/02/26 00:34:39;;;;;;;;;19.25;15.00;;;;;;;;5028149;28;13917;-69
2023/02/26 00:37:23;;;;;;;;;13.60;13.00;;;;;;;;5027648;28;13573;-69
2023/02/26 00:39:54;;;;;;;;;16.80;13.00;;;;;;;;5027768;28;13515;-69
2023/02/26 00:42:19;;;;;;;;;18.60;15.40;;;;;;;;5028120;28;13729;-69
2023/02/26 00:44:45;;;;;;;;;13.00;11.25;;;;;;;;5028026;28;13537;-69
2023/02/26 00:47:13;;;;;;;;;14.33;10.00;;;;;;;;5027800;28;13516;-68
2023/02/26 00:49:57;;;;;;;;;17.00;12.50;;;;;;;;5028032;28;13546;-68
2023/02/26 00:52:35;;;;;;;;;10.60;10.60;;;;;;;;5027487;28;13546;-69
2023/02/26 00:55:00;;;;;;;;;15.20;13.40;;;;;;;;5027859;28;13613;-68
2023/02/26 00:57:25;;;;;;;;;15.00;11.00;;;;;;;;5027805;28;13593;-68
2023/02/26 00:59:51;;;;;;;;;13.75;9.00;;;;;;;;5027893;28;14576;-68
2023/02/26 01:02:16;;;;;;;;;12.00;8.00;;;;;;;;5040109;28;13520;-67
2023/02/26 01:04:41;;;;;;;;;12.00;10.50;;;;;;;;5047535;28;13452;-67
2023/02/26 01:07:08;;;;;;;;;9.67;9.00;;;;;;;;5047380;28;13578;-68
2023/02/26 01:09:34;;;;;;;;;10.40;8.80;;;;;;;;5045972;28;13596;-68
2023/02/26 01:12:01;;;;;;;;;9.00;9.00;;;;;;;;5047088;28;14708;-68
2023/02/26 01:14:26;;;;;;;;;17.25;16.00;;;;;;;;5046164;28;13463;-68
2023/02/26 01:17:13;;;;;;;;;16.25;14.00;;;;;;;;5046984;28;13530;-68
2023/02/26 01:19:41;;;;;;;;;14.00;10.00;;;;;;;;5047423;28;13609;-68
2023/02/26 01:22:18;;;;;;;;;15.20;12.00;;;;;;;;5046985;28;13528;-68
2023/02/26 01:24:46;;;;;;;;;12.00;12.00;;;;;;;;5047478;28;14304;-68
2023/02/26 01:27:11;;;;;;;;;10.00;9.00;;;;;;;;5045769;28;13505;-68
2023/02/26 01:29:37;;;;;;;;;13.25;10.50;;;;;;;;5045634;28;13601;-68
2023/02/26 01:32:11;;;;;;;;;11.50;9.00;;;;;;;;5044754;28;13526;-69
2023/02/26 01:34:59;;;;;;;;;12.40;9.40;;;;;;;;5046902;28;13443;-69
2023/02/26 01:37:45;;;;;;;;;12.00;10.50;;;;;;;;5051501;28;13515;-74
2023/02/26 01:40:28;;;;;;;;;16.60;12.80;;;;;;;;5046513;28;13406;-68
2023/02/26 01:42:57;;;;;;;;;15.60;13.20;;;;;;;;5047141;28;14296;-68
2023/02/26 01:45:28;;;;;;;;;12.25;10.00;;;;;;;;5047713;28;13655;-68
2023/02/26 01:48:03;;;;;;;;;14.60;12.00;;;;;;;;5046115;28;13651;-68
2023/02/26 01:50:30;;;;;;;;;10.75;9.75;;;;;;;;5046968;28;14227;-69
2023/02/26 01:53:16;;;;;;;;;13.50;12.50;;;;;;;;5046651;28;14250;-68
2023/02/26 01:55:42;;;;;;;;;15.25;12.75;;;;;;;;5046388;28;13486;-68
2023/02/26 01:58:08;;;;;;;;;12.80;11.00;;;;;;;;5046740;28;13497;-68
2023/02/26 02:00:33;;;;;;;;;14.00;12.50;;;;;;;;5051557;28;14259;-68
2023/02/26 02:02:58;;;;;;;;;16.25;11.50;;;;;;;;5054327;28;13731;-68
2023/02/26 02:05:27;;;;;;;;;15.00;12.50;;;;;;;;5056778;28;13492;-69
2023/02/26 02:07:52;;;;;;;;;16.00;13.40;;;;;;;;5055127;28;13521;-68
2023/02/26 02:10:18;;;;;;;;;13.33;8.00;;;;;;;;5055312;28;13473;-68
2023/02/26 02:12:49;;;;;;;;;9.00;9.00;;;;;;;;5056691;28;13468;-68
2023/02/26 02:15:20;;;;;;;;;14.50;13.00;;;;;;;;5055563;28;13435;-69
2023/02/26 02:17:54;;;;;;;;;13.75;12.00;;;;;;;;5054514;28;13494;-68
2023/02/26 02:20:31;;;;;;;;;12.40;12.40;;;;;;;;5054842;28;13894;-69
2023/02/26 02:22:58;;;;;;;;;13.60;12.00;;;;;;;;5052811;28;13601;-69
2023/02/26 02:25:26;;;;;;;;;15.25;14.25;;;;;;;;5055250;28;13627;-69
2023/02/26 02:28:13;;;;;;;;;12.80;12.20;;;;;;;;5056653;28;13587;-68
2023/02/26 02:30:50;;;;;;;;;11.80;9.80;;;;;;;;5050823;28;13518;-68
2023/02/26 02:33:18;;;;;;;;;18.00;12.00;;;;;;;;5056185;28;13629;-68
2023/02/26 02:35:48;;;;;;;;;12.67;12.33;;;;;;;;5056973;28;13521;-68
2023/02/26 02:38:34;;;;;;;;;13.75;10.75;;;;;;;;5066113;28;13454;-68
2023/02/26 02:41:08;;;;;;;;;15.33;12.00;;;;;;;;5065584;28;13678;-68
2023/02/26 02:43:36;;;;;;;;;14.80;12.80;;;;;;;;5065918;28;13478;-68
2023/02/26 02:46:10;;;;;;;;;9.40;9.40;;;;;;;;5065681;28;13642;-68
2023/02/26 02:48:42;;;;;;;;;14.00;13.00;;;;;;;;5065811;28;13429;-68
2023/02/26 02:51:22;;;;;;;;;13.00;13.00;;;;;;;;5065767;28;13487;-68
2023/02/26 02:53:53;;;;;;;;;13.00;11.80;;;;;;;;5065592;28;13441;-68
2023/02/26 02:56:22;;;;;;;;;14.00;14.00;;;;;;;;5065733;28;13463;-68
2023/02/26 02:58:56;;;;;;;;;12.25;11.00;;;;;;;;5065360;28;13493;-68
2023/02/26 03:01:24;;;;;;;;;12.00;12.00;;;;;;;;5060497;28;13625;-68
2023/02/26 03:03:49;;;;;;;;;21.75;10.50;;;;;;;;5045945;28;13580;-68
2023/02/26 03:06:16;;;;;;;;;14.25;12.00;;;;;;;;5045297;28;13438;-68
2023/02/26 03:08:42;;;;;;;;;17.20;12.80;;;;;;;;5045358;28;13518;-68
2023/02/26 03:11:08;;;;;;;;;20.25;13.75;;;;;;;;5045424;28;13575;-68
2023/02/26 03:13:33;;;;;;;;;14.25;13.75;;;;;;;;5045533;28;13497;-68
2023/02/26 03:16:09;;;;;;;;;17.00;13.00;;;;;;;;5044857;28;13536;-68
2023/02/26 03:18:40;;;;;;;;;13.50;13.50;;;;;;;;5045351;28;14408;-68
2023/02/26 03:21:05;;;;;;;;;17.20;13.20;;;;;;;;5045176;28;13724;-72
2023/02/26 03:23:39;;;;;;;;;12.00;11.00;;;;;;;;5045300;28;13530;-69
2023/02/26 03:26:11;;;;;;;;;14.00;13.00;;;;;;;;5045472;28;13632;-69
2023/02/26 03:29:12;;;;;;;;;14.00;14.00;;;;;;;;5039885;28;13668;-69
2023/02/26 03:31:59;;;;;;;;;13.00;11.00;;;;;;;;5050508;28;13262;-69
2023/02/26 03:34:27;;;;;;;;;12.50;12.25;;;;;;;;5042291;28;14291;-70
2023/02/26 03:36:58;;;;;;;;;14.20;13.00;;;;;;;;5042874;28;13635;-70
2023/02/26 03:39:40;;;;;;;;;13.00;13.00;;;;;;;;5043050;28;13588;-70
2023/02/26 03:42:21;;;;;;;;;18.00;14.00;;;;;;;;5043020;28;13682;-70
2023/02/26 03:45:19;;;;;;;;;12.00;12.00;;;;;;;;5047552;28;13550;-70
2023/02/26 03:47:47;;;;;;;;;16.00;11.40;;;;;;;;5066283;28;13657;-70
2023/02/26 03:50:19;;;;;;;;;17.20;14.40;;;;;;;;5083335;28;13513;-70
2023/02/26 03:52:46;;;;;;;;;15.80;15.20;;;;;;;;5065939;28;13583;-70
2023/02/26 03:55:16;;;;;;;;;16.00;13.50;;;;;;;;5066504;28;13457;-70
2023/02/26 03:57:41;;;;;;;;;19.00;18.00;;;;;;;;5066287;28;13463;-70
2023/02/26 04:00:09;;;;;;;;;14.00;13.00;;;;;;;;5066371;28;13429;-70
2023/02/26 04:02:50;;;;;;;;;14.00;13.20;;;;;;;;5065949;28;13633;-70
2023/02/26 04:05:20;;;;;;;;;18.20;14.80;;;;;;;;5049458;28;13456;-70
2023/02/26 04:07:46;;;;;;;;;12.40;11.40;;;;;;;;5066179;28;13448;-70
2023/02/26 04:10:14;;;;;;;;;17.50;15.00;;;;;;;;5066056;28;13455;-70
2023/02/26 04:12:39;;;;;;;;;17.20;14.00;;;;;;;;5065542;28;13519;-71
2023/02/26 04:15:05;;;;;;;;;16.00;14.00;;;;;;;;5065859;28;13471;-70
2023/02/26 04:17:31;;;;;;;;;16.25;13.00;;;;;;;;5065805;28;13461;-69
2023/02/26 04:19:56;;;;;;;;;16.00;13.50;;;;;;;;5065906;28;13592;-68
2023/02/26 04:22:21;;;;;;;;;23.00;18.50;;;;;;;;5045183;28;13482;-68
2023/02/26 04:24:46;;;;;;;;;18.00;17.00;;;;;;;;5027257;28;13570;-68
2023/02/26 04:27:12;;;;;;;;;12.00;12.00;;;;;;;;5028513;28;13911;-69
2023/02/26 04:29:37;;;;;;;;;13.67;13.00;;;;;;;;5034272;28;14350;-68
2023/02/26 04:32:02;;;;;;;;;21.67;14.00;;;;;;;;5056804;28;13610;-69
2023/02/26 04:34:27;;;;;;;;;16.25;14.00;;;;;;;;5048172;28;13611;-68
2023/02/26 04:36:53;;;;;;;;;17.00;12.75;;;;;;;;5047909;28;13522;-68
2023/02/26 04:39:18;;;;;;;;;13.00;13.00;;;;;;;;5047780;28;13498;-69
2023/02/26 04:41:43;;;;;;;;;18.33;17.00;;;;;;;;5048173;28;13571;-69
2023/02/26 04:44:08;;;;;;;;;18.25;15.25;;;;;;;;5046483;28;13533;-69
2023/02/26 04:46:34;;;;;;;;;15.50;13.25;;;;;;;;5047652;28;13530;-69
2023/02/26 04:48:59;;;;;;;;;17.00;13.67;;;;;;;;5047254;28;13775;-69
2023/02/26 04:51:24;;;;;;;;;18.33;14.67;;;;;;;;5047733;28;14406;-69
2023/02/26 04:53:50;;;;;;;;;20.33;15.33;;;;;;;;5047350;28;13535;-69
2023/02/26 04:56:15;;;;;;;;;13.75;11.75;;;;;;;;5047482;28;13495;-69
2023/02/26 04:58:41;;;;;;;;;13.50;12.50;;;;;;;;5047491;28;13511;-69
2023/02/26 05:01:06;;;;;;;;;16.00;13.00;;;;;;;;5047644;28;13551;-69
2023/02/26 05:03:31;;;;;;;;;18.75;13.00;;;;;;;;5047246;28;13654;-69
2023/02/26 05:05:57;;;;;;;;;15.00;12.25;;;;;;;;5046999;28;13665;-69
2023/02/26 05:08:22;;;;;;;;;17.33;13.33;;;;;;;;5047330;28;13554;-69
2023/02/26 05:10:49;;;;;;;;;18.50;16.75;;;;;;;;5047177;28;13517;-68
2023/02/26 05:13:15;;;;;;;;;25.00;19.50;;;;;;;;5048650;28;13720;-69
2023/02/26 05:15:40;;;;;;;;;21.00;15.33;;;;;;;;5047275;28;13671;-69
2023/02/26 05:18:05;;;;;;;;;15.50;13.75;;;;;;;;5049677;28;14436;-69
2023/02/26 05:20:30;;;;;;;;;20.00;17.33;;;;;;;;5046977;28;13549;-69
2023/02/26 05:22:56;;;;;;;;;19.00;13.00;;;;;;;;5046998;28;13562;-69
2023/02/26 05:25:21;;;;;;;;;14.00;12.00;;;;;;;;5047194;28;13573;-69
2023/02/26 05:27:46;;;;;;;;;14.50;14.50;;;;;;;;5045613;28;14222;-71
2023/02/26 05:30:13;;;;;;;;;18.50;13.00;;;;;;;;5047330;28;13583;-70
2023/02/26 05:32:39;;;;;;;;;16.00;13.50;;;;;;;;5046912;28;13569;-69
2023/02/26 05:35:04;;;;;;;;;17.00;15.50;;;;;;;;5047107;28;13669;-70
2023/02/26 05:37:30;;;;;;;;;21.75;16.75;;;;;;;;5045452;28;13544;-69
2023/02/26 05:39:55;;;;;;;;;13.00;12.67;;;;;;;;5046891;28;13616;-69
2023/02/26 05:42:20;;;;;;;;;15.00;12.00;;;;;;;;5046826;28;13550;-69
2023/02/26 05:44:46;;;;;;;;;13.50;13.50;;;;;;;;5046669;28;13631;-69
2023/02/26 05:47:11;;;;;;;;;17.50;14.00;;;;;;;;5046354;28;13593;-68
2023/02/26 05:49:36;;;;;;;;;16.25;13.00;;;;;;;;5046632;28;13648;-72
2023/02/26 05:52:01;;;;;;;;;16.00;14.33;;;;;;;;5046723;28;13519;-69
2023/02/26 05:54:27;;;;;;;;;16.33;13.00;;;;;;;;5046557;28;13601;-69
2023/02/26 05:56:52;;;;;;;;;12.00;12.00;;;;;;;;5046522;28;13485;-68
2023/02/26 05:59:17;;;;;;;;;12.00;12.00;;;;;;;;5056894;28;13549;-67
2023/02/26 06:01:42;;;;;;;;;12.33;12.00;;;;;;;;5055035;28;13769;-66
2023/02/26 06:04:09;;;;;;;;;13.00;11.00;;;;;;;;5056330;28;13568;-66
2023/02/26 06:06:34;;;;;;;;;11.25;9.50;;;;;;;;5049244;28;13506;-66
2023/02/26 06:09:01;;;;;;;;;7.25;7.25;;;;;;;;5056702;28;13447;-66
2023/02/26 06:11:27;;;;;;;;;9.00;9.00;;;;;;;;5056559;28;13454;-67
2023/02/26 06:13:52;;;;;;;;;13.25;11.75;;;;;;;;5054346;28;13547;-67
2023/02/26 06:16:19;;;;;;;;;12.00;9.25;;;;;;;;5049124;28;13618;-67
2023/02/26 06:18:44;;;;;;;;;7.75;7.00;;;;;;;;5056051;28;13520;-66
2023/02/26 06:21:09;;;;;;;;;8.00;8.00;;;;;;;;5051191;28;13452;-67
2023/02/26 06:23:35;;;;;;;;;7.75;6.75;;;;;;;;5053555;28;13527;-67
2023/02/26 06:26:00;;;;;;;;;10.00;10.00;;;;;;;;5056844;28;13565;-69
2023/02/26 06:28:26;;;;;;;;;3.33;2.00;;;;;;;;5051445;28;13775;-67
2023/02/26 06:30:54;;;;;;;;;1.50;0.00;;;;;;;;5046100;28;13389;-67
2023/02/26 06:33:20;;;;;;;;;0.00;0.00;;;;;;;;5053689;28;14139;-67
2023/02/26 06:35:46;;;;;;;;;0.00;0.00;;;;;;;;5055492;28;13964;-67
2023/02/26 06:38:11;;;;;;;;;0.00;0.00;;;;;;;;5055576;28;13414;-67
2023/02/26 06:40:36;;;;;;;;;2.00;0.25;;;;;;;;5056252;28;13481;-67
2023/02/26 06:43:02;;;;;;;;;0.00;0.00;;;;;;;;5056725;28;13605;-67
2023/02/26 06:45:27;;;;;;;;;0.00;0.00;;;;;;;;5058061;28;13983;-67
2023/02/26 06:47:52;;;;;;;;;0.00;0.00;;;;;;;;5055351;28;14225;-67
2023/02/26 06:50:19;;;;;;;;;0.00;0.00;;;;;;;;5056622;28;13449;-68
2023/02/26 06:52:44;;;;;;;;;0.00;0.00;;;;;;;;5057261;28;14262;-68
2023/02/26 06:55:13;;;;;;;;;0.00;0.00;;;;;;;;5054933;28;13421;-68
2023/02/26 06:57:39;;;;;;;;;0.00;0.00;;;;;;;;5054861;28;13426;-68
2023/02/26 07:00:04;;;;;;;;;0.00;0.00;;;;;;;;5051414;28;13435;-66
2023/02/26 07:02:30;;;;;;;;;0.00;0.00;;;;;;;;5046014;28;13524;-67
2023/02/26 07:04:55;;;;;;;;;0.00;0.00;;;;;;;;5062838;28;13558;-68
2023/02/26 07:07:21;;;;;;;;;0.00;0.00;;;;;;;;5066301;28;13372;-68
2023/02/26 07:09:46;;;;;;;;;0.00;0.00;;;;;;;;5066807;28;13409;-67
2023/02/26 07:12:11;;;;;;;;;0.00;0.00;;;;;;;;5066264;28;13493;-68
2023/02/26 07:14:37;;;;;;;;;0.00;0.00;;;;;;;;5066464;28;13382;-67
2023/02/26 07:17:02;;;;;;;;;0.00;0.00;;;;;;;;5060488;28;13497;-66
2023/02/26 07:19:27;;;;;;;;;0.00;0.00;;;;;;;;5046180;28;14238;-67
2023/02/26 07:21:53;;;;;;;;;0.00;0.00;;;;;;;;5045898;28;14332;-68
2023/02/26 07:24:19;;;;;;;;;0.00;0.00;;;;;;;;5061361;28;13449;-69
2023/02/26 07:26:44;;;;;;;;;0.00;0.00;;;;;;;;5042168;28;13449;-67
2023/02/26 07:29:09;;;;;;;;;0.00;0.00;;;;;;;;5025657;28;13606;-66
2023/02/26 07:31:35;;;;;;;;;0.00;0.00;;;;;;;;5032721;28;14193;-68
2023/02/26 07:34:01;;;;;;;;;0.00;0.00;;;;;;;;5045463;28;13601;-68
2023/02/26 07:36:26;;;;;;;;;0.00;0.00;;;;;;;;5045326;28;13434;-70
2023/02/26 07:38:51;;;;;;;;;0.00;0.00;;;;;;;;5045771;28;14250;-72
2023/02/26 07:41:17;;;;;;;;;0.00;0.00;;;;;;;;5045691;28;13530;-71
2023/02/26 07:43:42;;;;;;;;;0.00;0.00;;;;;;;;5045863;28;13454;-70
2023/02/26 07:46:07;;;;;;;;;0.00;0.00;;;;;;;;5044591;28;13434;-70
2023/02/26 07:48:33;;;;;;;;;0.00;0.00;;;;;;;;5045661;28;13494;-68
2023/02/26 07:50:58;;;;;;;;;0.00;0.00;;;;;;;;5045763;28;13426;-68
2023/02/26 07:53:23;;;;;;;;;1.25;0.75;;;;;;;;5045448;28;13417;-68
2023/02/26 07:55:49;;;;;;;;;0.00;0.00;;;;;;;;5045481;28;13520;-68
2023/02/26 07:58:14;;;;;;;;;0.00;0.00;;;;;;;;5045494;28;13447;-68
2023/02/26 08:00:39;;;;;;;;;0.00;0.00;;;;;;;;5045334;28;13428;-68
2023/02/26 08:03:04;;;;;;;;;0.00;0.00;;;;;;;;5036355;28;14205;-68
2023/02/26 08:05:30;;;;;;;;;0.00;0.00;;;;;;;;5028399;28;13417;-68
2023/02/26 08:07:55;;;;;;;;;0.00;0.00;;;;;;;;5025788;28;13397;-68
2023/02/26 08:10:20;;;;;;;;;0.00;0.00;;;;;;;;5025645;28;13515;-68
2023/02/26 08:12:46;;;;;;;;;0.00;0.00;;;;;;;;5030572;28;14229;-68
2023/02/26 08:15:14;;;;;;;;;0.00;0.00;;;;;;;;5060589;28;13446;-68
2023/02/26 08:17:40;;;;;;;;;0.00;0.00;;;;;;;;5043903;28;13467;-68
2023/02/26 08:20:06;;;;;;;;;0.00;0.00;;;;;;;;5043345;28;14231;-68
2023/02/26 08:22:31;;;;;;;;;0.00;0.00;;;;;;;;5044750;28;13469;-67
2023/02/26 08:24:56;;;;;;;;;0.00;0.00;;;;;;;;5045289;28;14188;-68
2023/02/26 08:27:22;;;;;;;;;0.00;0.00;;;;;;;;5045161;28;13415;-67
2023/02/26 08:29:49;;;;;;;;;0.00;0.00;;;;;;;;5047858;28;13435;-68
2023/02/26 08:32:15;;;;;;;;;0.00;0.00;;;;;;;;5047951;28;14125;-68
2023/02/26 08:34:40;;;;;;;;;0.00;0.00;;;;;;;;5047629;28;13449;-68
2023/02/26 08:37:08;;;;;;;;;0.00;0.00;;;;;;;;5047854;28;13438;-68
2023/02/26 08:39:37;;;;;;;;;0.00;0.00;;;;;;;;5047238;28;13538;-68
2023/02/26 08:42:02;;;;;;;;;0.00;0.00;;;;;;;;5047236;28;13588;-66
2023/02/26 08:44:27;;;;;;;;;0.00;0.00;;;;;;;;5048718;28;14396;-64
2023/02/26 08:46:52;;;;;;;;;0.00;0.00;;;;;;;;5047643;28;13446;-65
2023/02/26 08:49:18;;;;;;;;;0.00;0.00;;;;;;;;5047841;28;13528;-65
2023/02/26 08:51:43;;;;;;;;;0.00;0.00;;;;;;;;5045652;28;13476;-64
2023/02/26 08:54:08;;;;;;;;;0.00;0.00;;;;;;;;5048356;28;13379;-69
2023/02/26 08:56:33;;;;;;;;;0.00;0.00;;;;;;;;5047474;28;13358;-68
2023/02/26 08:58:59;;;;;;;;;0.00;0.00;;;;;;;;4957201;28;13399;-64
2023/02/26 09:01:24;;;;;;;;;0.00;0.00;;;;;;;;5072034;28;13437;-66
2023/02/26 09:03:49;;;;;;;;;0.00;0.00;;;;;;;;5048014;28;13598;-67
2023/02/26 09:06:14;;;;;;;;;0.00;0.00;;;;;;;;4995574;28;13456;-67
2023/02/26 09:08:40;;;;;;;;;0.00;0.00;;;;;;;;5038871;28;13413;-67
2023/02/26 09:11:05;;;;;;;;;0.00;0.00;;;;;;;;5048295;28;13603;-67
2023/02/26 09:13:30;;;;;;;;;0.00;0.00;;;;;;;;5046683;28;14044;-67
2023/02/26 09:15:56;;;;;;;;;0.00;0.00;;;;;;;;5046105;28;13416;-67
2023/02/26 09:18:21;;;;;;;;;0.00;0.00;;;;;;;;5046497;28;13483;-66
2023/02/26 09:20:46;;;;;;;;;0.00;0.00;;;;;;;;5045274;28;13407;-65
2023/02/26 09:23:11;;;;;;;;;0.00;0.00;;;;;;;;5044959;28;13464;-66
2023/02/26 09:25:37;;;;;;;;;0.00;0.00;;;;;;;;5046951;28;13542;-68
2023/02/26 09:28:03;;;;;;;;;0.00;0.00;;;;;;;;5046308;28;14223;-65
2023/02/26 09:30:28;;;;;;;;;0.00;0.00;;;;;;;;5045849;28;13470;-66
2023/02/26 09:32:54;;;;;;;;;1.00;0.00;;;;;;;;5039907;28;13770;-67
2023/02/26 09:35:19;;;;;;;;;8.75;8.00;;;;;;;;5046039;28;13486;-67
2023/02/26 09:37:44;;;;;;;;;10.00;8.00;;;;;;;;5044600;28;13586;-66
2023/02/26 09:40:19;;;;;;;;;1.00;1.00;;;;;;;;5044323;28;13515;-66
2023/02/26 09:42:55;;;;;;;;;0.00;0.00;;;;;;;;5051379;28;13467;-66
2023/02/26 09:45:32;;;;;;;;;0.00;0.00;;;;;;;;5047704;28;13486;-65
2023/02/26 09:47:58;;;;;;;;;0.00;0.00;;;;;;;;5047790;28;13417;-66
2023/02/26 09:50:49;;;;;;;;;0.00;0.00;;;;;;;;5047725;28;13442;-66
2023/02/26 09:53:17;;;;;;;;;0.00;0.00;;;;;;;;5045383;28;13568;-65
2023/02/26 09:55:45;;;;;;;;;0.00;0.00;;;;;;;;5047782;28;13403;-67
2023/02/26 09:58:21;;;;;;;;;0.00;0.00;;;;;;;;5047432;28;13422;-66
2023/02/26 10:00:51;;;;;;;;;0.00;0.00;;;;;;;;5047797;28;13404;-66
2023/02/26 10:03:25;;;;;;;;;0.00;0.00;;;;;;;;5046753;28;14552;-65
2023/02/26 10:05:57;;;;;;;;;0.00;0.00;;;;;;;;5046826;28;13437;-64
2023/02/26 10:08:25;;;;;;;;;0.00;0.00;;;;;;;;5047478;28;13508;-66
2023/02/26 10:10:59;;;;;;;;;0.00;0.00;;;;;;;;5047297;28;14302;-66
2023/02/26 10:13:41;;;;;;;;;0.00;0.00;;;;;;;;5048223;28;13432;-66
2023/02/26 10:16:15;;;;;;;;;0.00;0.00;;;;;;;;5059192;28;13462;-66
2023/02/26 10:18:46;;;;;;;;;0.00;0.00;;;;;;;;5046387;28;13538;-65
2023/02/26 10:21:29;;;;;;;;;0.00;0.00;;;;;;;;5045214;28;13595;-67
2023/02/26 10:23:56;;;;;;;;;2.00;1.00;;;;;;;;5044808;28;13467;-68
2023/02/26 10:26:23;;;;;;;;;0.75;0.00;;;;;;;;5046999;28;13426;-67
2023/02/26 10:29:18;;;;;;;;;0.00;0.00;;;;;;;;5044723;28;13485;-67
2023/02/26 10:31:43;;;;;;;;;1.00;1.00;;;;;;;;5056384;28;13392;-69
2023/02/26 10:34:23;;;;;;;;;1.00;1.00;;;;;;;;5027193;28;13296;-67
2023/02/26 10:36:50;;;;;;;;;1.00;0.00;;;;;;;;5027494;28;13266;-67
2023/02/26 10:39:22;;;;;;;;;0.00;0.00;;;;;;;;5044181;28;13264;-66
2023/02/26 10:41:48;;;;;;;;;1.50;1.25;;;;;;;;5041742;28;13675;-69
2023/02/26 10:44:42;;;;;;;;;0.00;0.00;;;;;;;;5043623;28;13303;-70
2023/02/26 10:47:26;;;;;;;;;0.00;0.00;;;;;;;;5038156;28;13489;-70
2023/02/26 10:50:01;;;;;;;;;0.00;0.00;;;;;;;;5042276;28;13367;-68
2023/02/26 10:52:27;;;;;;;;;0.00;0.00;;;;;;;;5039991;28;13334;-70
2023/02/26 10:54:58;;;;;;;;;0.00;0.00;;;;;;;;5041993;28;13312;-69
2023/02/26 10:57:27;;;;;;;;;0.00;0.00;;;;;;;;5042831;28;13216;-71
2023/02/26 10:59:52;;;;;;;;;0.00;0.00;;;;;;;;5043848;28;13385;-73
2023/02/26 11:02:41;;;;;;;;;0.00;0.00;;;;;;;;5041042;28;13306;-69
2023/02/26 11:05:12;;;;;;;;;0.00;0.00;;;;;;;;5039902;28;13272;-70
2023/02/26 11:07:38;;;;;;;;;0.00;0.00;;;;;;;;5043888;28;13547;-69
2023/02/26 11:10:03;;;;;;;;;0.00;0.00;;;;;;;;5046286;28;13521;-73
2023/02/26 11:12:30;;;;;;;;;4.00;4.00;;;;;;;;5044688;28;14286;-70
2023/02/26 11:14:56;;;;;;;;;3.20;1.60;;;;;;;;5045428;28;13480;-71
2023/02/26 11:17:26;;;;;;;;;0.00;0.00;;;;;;;;5045558;28;13391;-69
2023/02/26 11:19:55;;;;;;;;;0.00;0.00;;;;;;;;5045377;28;13571;-69
2023/02/26 11:22:21;;;;;;;;;0.00;0.00;;;;;;;;5044572;28;13450;-68
2023/02/26 11:24:47;;;;;;;;;0.00;0.00;;;;;;;;5044839;28;13548;-68
2023/02/26 11:27:14;;;;;;;;;0.00;0.00;;;;;;;;5043206;28;13538;-68
2023/02/26 11:29:42;;;;;;;;;0.00;0.00;;;;;;;;5045699;28;13389;-70
2023/02/26 11:32:17;;;;;;;;;0.00;0.00;;;;;;;;5033857;28;13508;-69
2023/02/26 11:34:47;;;;;;;;;13.50;12.00;;;;;;;;5028943;28;13482;-67
2023/02/26 11:37:17;;;;;;;;;11.00;9.00;;;;;;;;5043723;28;13556;-67
2023/02/26 11:39:42;;;;;;;;;0.00;0.00;;;;;;;;5043799;28;13830;-67
2023/02/26 11:42:09;;;;;;;;;0.00;0.00;;;;;;;;5045153;28;13420;-66
2023/02/26 11:44:44;;;;;;;;;0.00;0.00;;;;;;;;5045751;28;13424;-68
2023/02/26 11:47:25;;;;;;;;;0.00;0.00;;;;;;;;5045573;28;13566;-69
2023/02/26 11:49:53;;;;;;;;;0.00;0.00;;;;;;;;5045925;28;13559;-70
2023/02/26 11:52:26;;;;;;;;;0.00;0.00;;;;;;;;5044502;28;13463;-68
2023/02/26 11:54:54;;;;;;;;;0.00;0.00;;;;;;;;5041294;28;13546;-67
2023/02/26 11:57:22;;;;;;;;;0.00;0.00;;;;;;;;5035030;28;14230;-67
2023/02/26 11:59:49;;;;;;;;;0.00;0.00;;;;;;;;5026294;28;13507;-67
2023/02/26 12:02:17;;;;;;;;;9.00;7.00;;;;;;;;5031131;28;13604;-66
2023/02/26 12:04:45;;;;;;;;;6.50;5.25;;;;;;;;5046703;28;14152;-67
2023/02/26 12:07:12;;;;;;;;;0.00;0.00;;;;;;;;5049509;28;13438;-67
2023/02/26 12:09:38;;;;;;;;;3.20;3.20;;;;;;;;5049860;28;13461;-69
2023/02/26 12:12:12;;;;;;;;;16.20;14.00;;;;;;;;5049362;28;13636;-67
2023/02/26 12:14:38;;;;;;;;;3.00;3.00;;;;;;;;5048536;28;13591;-69
2023/02/26 12:17:41;;;;;;;;;0.00;0.00;;;;;;;;5049009;28;13410;-68
2023/02/26 12:20:28;;;;;;;;;0.00;0.00;;;;;;;;5045954;28;14143;-68
2023/02/26 12:22:56;;;;;;;;;0.00;0.00;;;;;;;;5046072;28;14274;-67
2023/02/26 12:25:24;;;;;;;;;16.00;11.75;;;;;;;;5045925;28;13486;-66
2023/02/26 12:28:09;;;;;;;;;10.20;8.60;;;;;;;;5044483;28;14319;-66
2023/02/26 12:30:44;;;;;;;;;8.25;6.50;;;;;;;;5035074;28;13544;-67
2023/02/26 12:33:18;;;;;;;;;2.00;2.00;;;;;;;;5028430;28;13521;-67
2023/02/26 12:35:49;;;;;;;;;0.00;0.00;;;;;;;;5045737;28;13660;-66
2023/02/26 12:38:19;;;;;;;;;6.50;3.00;;;;;;;;5047366;28;13559;-66
2023/02/26 12:40:56;;;;;;;;;2.00;2.00;;;;;;;;5047738;28;13471;-67
2023/02/26 12:43:22;;;;;;;;;0.00;0.00;;;;;;;;5048719;28;13507;-69
2023/02/26 12:46:02;;;;;;;;;0.00;0.00;;;;;;;;5048887;28;13416;-67
2023/02/26 12:48:34;;;;;;;;;28.75;28.25;;;;;;;;5048082;28;14177;-68
2023/02/26 12:50:59;;;;;;;;;24.60;18.60;;;;;;;;5047734;28;13541;-68
2023/02/26 12:53:27;;;;;;;;;16.00;16.00;;;;;;;;5046398;28;13556;-68
2023/02/26 12:55:52;;;;;;;;;16.40;16.40;;;;;;;;5046670;28;15194;-68
2023/02/26 12:58:17;;;;;;;;;15.75;14.50;;;;;;;;5040829;28;13513;-68
2023/02/26 13:00:46;;;;;;;;;1.00;0.00;;;;;;;;5034865;28;13582;-67
2023/02/26 13:03:14;;;;;;;;;0.00;0.00;;;;;;;;5029050;28;13503;-67
2023/02/26 13:05:57;;;;;;;;;0.75;0.75;;;;;;;;5040795;28;13597;-68
2023/02/26 13:08:32;;;;;;;;;5.25;5.25;;;;;;;;5048107;28;13495;-67
2023/02/26 13:11:07;;;;;;;;;28.50;27.00;;;;;;;;5047526;28;13471;-67
2023/02/26 13:14:00;;;;;;;;;61.80;47.20;;;;;;;;5047442;28;13559;-67
2023/02/26 13:16:26;;;;;;;;;0.00;0.00;;;;;;;;5046764;28;13622;-67
2023/02/26 13:19:29;;;;;;;;;0.00;0.00;;;;;;;;5047918;28;13414;-67
2023/02/26 13:21:58;;;;;;;;;0.00;0.00;;;;;;;;5043202;28;13471;-67
2023/02/26 13:24:26;;;;;;;;;0.00;0.00;;;;;;;;5045098;28;13471;-67
2023/02/26 13:26:52;;;;;;;;;0.00;0.00;;;;;;;;5045673;28;13423;-67
2023/02/26 13:29:26;;;;;;;;;0.00;0.00;;;;;;;;5045806;28;13607;-67
2023/02/26 13:31:59;;;;;;;;;0.00;0.00;;;;;;;;5037070;28;14280;-67
2023/02/26 13:34:24;;;;;;;;;0.00;0.00;;;;;;;;5023177;28;13445;-67
2023/02/26 13:36:50;;;;;;;;;0.00;0.00;;;;;;;;5023110;28;13476;-67
2023/02/26 13:39:24;;;;;;;;;0.00;0.00;;;;;;;;5023102;28;14643;-67
2023/02/26 13:41:56;;;;;;;;;0.00;0.00;;;;;;;;5023436;28;13735;-67
2023/02/26 13:44:35;;;;;;;;;0.00;0.00;;;;;;;;5023158;28;14475;-67
2023/02/26 13:47:19;;;;;;;;;0.00;0.00;;;;;;;;5022775;28;13674;-67
2023/02/26 13:50:03;;;;;;;;;0.00;0.00;;;;;;;;5027151;28;13428;-68
2023/02/26 13:52:29;;;;;;;;;0.00;0.00;;;;;;;;5046229;28;13406;-70
2023/02/26 13:54:58;;;;;;;;;0.00;0.00;;;;;;;;5040965;28;13564;-72
2023/02/26 13:57:24;;;;;;;;;0.00;0.00;;;;;;;;5027493;28;13593;-72
2023/02/26 14:00:12;;;;;;;;;0.00;0.00;;;;;;;;5027482;28;13483;-71
2023/02/26 14:02:46;;;;;;;;;0.00;0.00;;;;;;;;5042521;28;13470;-69
2023/02/26 14:05:30;;;;;;;;;0.20;0.00;;;;;;;;5037344;28;14326;-68
2023/02/26 14:07:58;;;;;;;;;0.00;0.00;;;;;;;;5025102;28;13430;-67
2023/02/26 14:10:30;;;;;;;;;0.00;0.00;;;;;;;;5025195;28;13500;-68
2023/02/26 14:13:13;;;;;;;;;59.40;47.20;;;;;;;;5024979;28;13483;-68
2023/02/26 14:15:49;;;;;;;;;28.25;26.50;;;;;;;;5024433;28;14733;-68
2023/02/26 14:18:41;;;;;;;;;27.50;26.00;;;;;;;;5025238;28;13668;-68
2023/02/26 14:21:25;;;;;;;;;0.00;0.00;;;;;;;;5026908;28;14479;-68
2023/02/26 14:23:55;;;;;;;;;0.00;0.00;;;;;;;;5027021;28;13400;-68
2023/02/26 14:26:20;;;;;;;;;0.00;0.00;;;;;;;;5026542;28;13521;-68
2023/02/26 14:28:55;;;;;;;;;0.00;0.00;;;;;;;;5027107;28;13614;-68
2023/02/26 14:31:21;;;;;;;;;0.00;0.00;;;;;;;;5031089;28;13383;-69
2023/02/26 14:34:02;;;;;;;;;0.00;0.00;;;;;;;;5046988;28;13432;-68
2023/02/26 14:36:48;;;;;;;;;0.00;0.00;;;;;;;;5047238;28;13513;-68
2023/02/26 14:39:24;;;;;;;;;0.00;0.00;;;;;;;;5046445;28;13431;-67
2023/02/26 14:41:53;;;;;;;;;0.00;0.00;;;;;;;;5046859;28;13411;-68
2023/02/26 14:44:21;;;;;;;;;0.00;0.00;;;;;;;;5046901;28;13441;-67